Time;durP1;ratioP1;P1;durP2;ratioP2;P2;SDS_P1;SDS_P2;PMS_P1;PMS_P2;Temp;Humidity;BMP_temperature;BMP_pressure;BME280_temperature;BME280_humidity;BME280_pressure;Samples;Min_cycle;Max_cycle;Signal;HPM_P1;HPM_P2
2022/03/20 00:00:46;;;;;;;;;;;;;;;15.93;58.86;100182.38;2052385;28;19930;-81
2022/03/20 00:01:47;;;;;;;;;;;;;;;15.94;58.71;100192.13;2051641;28;19937;-83
2022/03/20 00:02:48;;;;;;;;;;;;;;;15.93;58.79;100183.22;2052032;28;20086;-80
2022/03/20 00:03:50;;;;;;;;;;;;;;;15.92;58.83;100188.75;2041568;28;19938;-81
2022/03/20 00:04:53;;;;;;;;;;;;;;;15.91;58.79;100184.38;2049641;28;20578;-80
2022/03/20 00:05:54;;;;;;;;;;;;;;;15.90;58.80;100182.69;2047151;28;19936;-82
2022/03/20 00:06:55;;;;;;;;;;;;;;;15.90;58.73;100183.53;2043081;28;19993;-83
2022/03/20 00:07:58;;;;;;;;;;;;;;;15.91;58.79;100184.38;2044912;28;19940;-80
2022/03/20 00:08:58;;;;;;;;;;;;;;;15.89;58.72;100189.03;2045215;28;19937;-80
2022/03/20 00:10:01;;;;;;;;;;;;;;;15.89;58.84;100186.38;2043966;28;20579;-80
2022/03/20 00:11:04;;;;;;;;;;;;;;;15.89;58.76;100192.56;2045180;28;20276;-80
2022/03/20 00:12:05;;;;;;;;;;;;;;;15.88;58.92;100193.56;2049092;28;19937;-80
2022/03/20 00:13:08;;;;;;;;;;;;;;;15.87;58.74;100183.81;2046044;28;20876;-79
2022/03/20 00:14:12;;;;;;;;;;;;;;;15.86;58.83;100191.03;2050477;28;19992;-80
2022/03/20 00:15:13;;;;;;;;;;;;;;;15.86;58.85;100192.84;2042888;28;20021;-79
2022/03/20 00:16:15;;;;;;;;;;;;;;;15.85;58.79;100186.66;2049484;28;20369;-82
2022/03/20 00:17:16;;;;;;;;;;;;;;;15.85;58.87;100184.00;2050894;28;19940;-80
2022/03/20 00:18:20;;;;;;;;;;;;;;;15.84;58.90;100184.97;2051664;28;19934;-81
2022/03/20 00:19:20;;;;;;;;;;;;;;;15.83;58.80;100188.63;2050373;28;20194;-81
2022/03/20 00:20:24;;;;;;;;;;;;;;;15.84;58.87;100184.13;2047213;28;19937;-82
2022/03/20 00:21:25;;;;;;;;;;;;;;;15.82;58.89;100180.75;2046006;28;20963;-80
2022/03/20 00:22:26;;;;;;;;;;;;;;;15.83;58.84;100188.63;2050636;28;19930;-80
2022/03/20 00:23:29;;;;;;;;;;;;;;;15.81;58.85;100182.59;2050121;28;19936;-82
2022/03/20 00:24:29;;;;;;;;;;;;;;;15.81;58.93;100189.78;2051291;28;19957;-81
2022/03/20 00:25:33;;;;;;;;;;;;;;;15.81;58.82;100190.63;2050905;28;19937;-79
2022/03/20 00:26:39;;;;;;;;;;;;;;;15.80;58.93;100188.94;2050887;28;19934;-81
2022/03/20 00:27:39;;;;;;;;;;;;;;;15.79;58.93;100187.22;2051517;28;19956;-79
2022/03/20 00:28:42;;;;;;;;;;;;;;;15.79;58.93;100186.41;2052060;28;20981;-79
2022/03/20 00:29:43;;;;;;;;;;;;;;;15.79;58.87;100192.59;2049366;28;19930;-81
2022/03/20 00:30:45;;;;;;;;;;;;;;;15.78;58.93;100185.56;2051475;28;20034;-81
2022/03/20 00:31:46;;;;;;;;;;;;;;;15.78;58.96;100182.88;2051411;28;19977;-78
2022/03/20 00:32:47;;;;;;;;;;;;;;;15.78;58.87;100187.41;2051876;28;20424;-80
2022/03/20 00:33:48;;;;;;;;;;;;;;;15.77;58.93;100188.41;2050216;28;19938;-81
2022/03/20 00:34:50;;;;;;;;;;;;;;;15.76;58.89;100184.03;2051900;28;20278;-80
2022/03/20 00:35:50;;;;;;;;;;;;;;;15.78;58.95;100190.06;2051259;28;21302;-79
2022/03/20 00:36:52;;;;;;;;;;;;;;;15.76;59.00;100186.69;2051210;28;19929;-80
2022/03/20 00:37:53;;;;;;;;;;;;;;;15.75;58.97;100182.34;2051718;28;20424;-81
2022/03/20 00:38:54;;;;;;;;;;;;;;;15.75;58.93;100185.03;2051241;28;19930;-81
2022/03/20 00:39:55;;;;;;;;;;;;;;;15.75;58.97;100187.69;2050288;28;20499;-82
2022/03/20 00:40:58;;;;;;;;;;;;;;;15.74;59.01;100186.84;2051838;28;19930;-82
2022/03/20 00:42:00;;;;;;;;;;;;;;;15.73;58.91;100187.81;2049464;28;19936;-81
2022/03/20 00:43:02;;;;;;;;;;;;;;;15.73;59.09;100185.16;2051359;28;20294;-80
2022/03/20 00:44:03;;;;;;;;;;;;;;;15.72;58.98;100186.16;2051169;28;19930;-81
2022/03/20 00:45:05;;;;;;;;;;;;;;;15.72;59.00;100183.47;2051931;28;19980;-80
2022/03/20 00:46:05;;;;;;;;;;;;;;;15.73;59.01;100184.31;2050009;28;19936;-80
2022/03/20 00:47:07;;;;;;;;;;;;;;;15.72;59.01;100186.16;2052151;28;19981;-81
2022/03/20 00:48:08;;;;;;;;;;;;;;;15.72;59.02;100183.47;2051322;28;19931;-81
2022/03/20 00:49:10;;;;;;;;;;;;;;;15.71;59.09;100189.84;2051355;28;19930;-82
2022/03/20 00:50:11;;;;;;;;;;;;;;;15.70;59.14;100190.81;2051517;28;21554;-79
2022/03/20 00:51:15;;;;;;;;;;;;;;;15.70;59.02;100184.63;2051187;28;20032;-82
2022/03/20 00:52:16;;;;;;;;;;;;;;;15.68;58.96;100184.75;2051972;28;19930;-81
2022/03/20 00:53:17;;;;;;;;;;;;;;;15.68;59.13;100184.75;2051940;28;20308;-81
2022/03/20 00:54:18;;;;;;;;;;;;;;;15.68;59.15;100179.41;2051460;28;19934;-81
2022/03/20 00:55:19;;;;;;;;;;;;;;;15.67;59.06;100183.03;2052094;28;20383;-80
2022/03/20 00:56:21;;;;;;;;;;;;;;;15.68;58.95;100189.22;2050898;28;19980;-79
2022/03/20 00:57:23;;;;;;;;;;;;;;;15.67;59.08;100191.06;2050553;28;19937;-81
2022/03/20 00:58:24;;;;;;;;;;;;;;;15.67;59.14;100193.75;2051980;28;19937;-81
2022/03/20 00:59:26;;;;;;;;;;;;;;;15.67;58.94;100191.06;2051000;28;20401;-81
2022/03/20 01:00:27;;;;;;;;;;;;;;;15.66;59.15;100192.06;2051024;28;20377;-78
2022/03/20 01:01:29;;;;;;;;;;;;;;;15.66;58.99;100189.41;2051003;28;20367;-80
2022/03/20 01:02:36;;;;;;;;;;;;;;;15.65;59.02;100182.34;2052382;28;20018;-81
2022/03/20 01:03:38;;;;;;;;;;;;;;;15.64;59.04;100192.19;2042836;28;20867;-79
2022/03/20 01:04:39;;;;;;;;;;;;;;;15.63;59.10;100187.00;2048459;28;19930;-81
2022/03/20 01:05:41;;;;;;;;;;;;;;;15.63;59.02;100184.34;2050831;28;19958;-81
2022/03/20 01:06:41;;;;;;;;;;;;;;;15.63;59.12;100187.00;2051605;28;20451;-80
2022/03/20 01:07:43;;;;;;;;;;;;;;;15.62;58.99;100188.81;2050816;28;19933;-80
2022/03/20 01:08:45;;;;;;;;;;;;;;;15.62;59.13;100185.31;2051296;28;19930;-80
2022/03/20 01:09:46;;;;;;;;;;;;;;;15.62;59.03;100193.34;2048875;28;19981;-80
2022/03/20 01:10:47;;;;;;;;;;;;;;;15.62;59.02;100186.16;2051485;28;19977;-81
2022/03/20 01:11:51;;;;;;;;;;;;;;;15.62;59.13;100193.34;2049418;28;19938;-80
2022/03/20 01:12:54;;;;;;;;;;;;;;;15.61;59.08;100188.97;2044280;28;19973;-81
2022/03/20 01:13:57;;;;;;;;;;;;;;;15.61;59.23;100194.34;2058203;28;19929;-80
2022/03/20 01:14:59;;;;;;;;;;;;;;;15.60;59.20;100190.81;2056780;28;20371;-81
2022/03/20 01:16:00;;;;;;;;;;;;;;;15.60;59.07;100189.94;2051066;28;19952;-82
2022/03/20 01:17:02;;;;;;;;;;;;;;;15.59;59.13;100191.78;2052175;28;19934;-81
2022/03/20 01:18:03;;;;;;;;;;;;;;;15.58;59.13;100187.44;2051044;28;19930;-80
2022/03/20 01:19:04;;;;;;;;;;;;;;;15.57;59.10;100183.09;2050270;28;19952;-82
2022/03/20 01:20:08;;;;;;;;;;;;;;;15.58;59.24;100183.94;2051067;28;20054;-82
2022/03/20 01:21:09;;;;;;;;;;;;;;;15.59;59.29;100180.25;2051297;28;19930;-80
2022/03/20 01:22:15;;;;;;;;;;;;;;;15.59;59.13;100185.59;2049656;28;19930;-81
2022/03/20 01:23:16;;;;;;;;;;;;;;;15.60;59.08;100185.47;2051887;28;19965;-82
2022/03/20 01:24:21;;;;;;;;;;;;;;;15.64;59.10;100180.66;2051336;28;19931;-80
2022/03/20 01:25:21;;;;;;;;;;;;;;;15.64;59.08;100183.34;2051359;28;19937;-80
2022/03/20 01:26:23;;;;;;;;;;;;;;;15.65;59.18;100185.00;2050967;28;19969;-81
2022/03/20 01:27:23;;;;;;;;;;;;;;;15.67;59.24;100187.56;2051190;28;19937;-80
2022/03/20 01:28:26;;;;;;;;;;;;;;;15.68;59.27;100191.91;2050307;28;19930;-80
2022/03/20 01:29:27;;;;;;;;;;;;;;;15.69;59.13;100189.13;2051053;28;19929;-81
2022/03/20 01:30:30;;;;;;;;;;;;;;;15.71;59.15;100192.50;2049518;28;20025;-78
2022/03/20 01:31:30;;;;;;;;;;;;;;;15.72;59.27;100188.81;2050872;28;19937;-80
2022/03/20 01:32:32;;;;;;;;;;;;;;;15.73;59.18;100181.63;2049324;28;20500;-81
2022/03/20 01:33:34;;;;;;;;;;;;;;;15.74;59.24;100181.50;2050826;28;19938;-82
2022/03/20 01:34:36;;;;;;;;;;;;;;;15.75;59.22;100180.50;2048891;28;19991;-83
2022/03/20 01:35:37;;;;;;;;;;;;;;;15.76;59.14;100176.00;2051264;28;19930;-80
2022/03/20 01:36:38;;;;;;;;;;;;;;;15.77;59.21;100177.69;2051312;28;19949;-81
2022/03/20 01:37:41;;;;;;;;;;;;;;;15.77;59.20;100175.84;2050909;28;20346;-81
2022/03/20 01:38:42;;;;;;;;;;;;;;;15.78;59.08;100177.53;2050886;28;19934;-80
2022/03/20 01:39:43;;;;;;;;;;;;;;;15.79;59.19;100179.22;2050215;28;19930;-81
2022/03/20 01:40:46;;;;;;;;;;;;;;;15.80;59.08;100172.88;2050896;28;19930;-80
2022/03/20 01:41:47;;;;;;;;;;;;;;;15.80;59.12;100172.88;2050982;28;20005;-80
2022/03/20 01:42:48;;;;;;;;;;;;;;;15.81;59.06;100166.53;2049859;28;19937;-79
2022/03/20 01:43:51;;;;;;;;;;;;;;;15.83;59.08;100177.94;2050110;28;19930;-80
2022/03/20 01:44:52;;;;;;;;;;;;;;;15.83;59.04;100171.75;2050173;28;20024;-79
2022/03/20 01:45:55;;;;;;;;;;;;;;;15.84;58.99;100176.94;2050809;28;19930;-80
2022/03/20 01:46:57;;;;;;;;;;;;;;;15.85;59.08;100170.63;2051044;28;19930;-79
2022/03/20 01:47:57;;;;;;;;;;;;;;;15.86;58.95;100171.44;2049829;28;19930;-79
2022/03/20 01:48:59;;;;;;;;;;;;;;;15.87;58.98;100173.13;2050788;28;20456;-80
2022/03/20 01:50:00;;;;;;;;;;;;;;;15.86;59.02;100174.97;2049518;28;19986;-79
2022/03/20 01:51:01;;;;;;;;;;;;;;;15.87;58.92;100170.44;2050572;28;22666;-81
2022/03/20 01:52:14;;;;;;;;;;;;;;;15.88;58.96;100174.84;2050722;28;20324;-82
2022/03/20 01:53:17;;;;;;;;;;;;;;;15.89;58.96;100173.81;2049920;28;19934;-79
2022/03/20 01:54:18;;;;;;;;;;;;;;;15.90;58.95;100163.97;2046146;28;20320;-79
2022/03/20 01:55:21;;;;;;;;;;;;;;;15.89;58.89;100171.16;2048440;28;20143;-80
2022/03/20 01:56:22;;;;;;;;;;;;;;;15.91;58.94;100170.97;2048936;28;20466;-80
2022/03/20 01:57:26;;;;;;;;;;;;;;;15.91;58.97;100176.34;2049869;28;19988;-80
2022/03/20 01:58:26;;;;;;;;;;;;;;;15.90;58.90;100166.63;2046431;28;19965;-82
2022/03/20 01:59:32;;;;;;;;;;;;;;;15.93;58.91;100172.53;2049086;28;19941;-81
2022/03/20 02:00:34;;;;;;;;;;;;;;;15.92;58.94;100162.81;2048396;28;19929;-79
2022/03/20 02:01:34;;;;;;;;;;;;;;;15.92;58.89;100162.81;2049950;28;19930;-82
2022/03/20 02:02:36;;;;;;;;;;;;;;;15.93;58.81;100160.97;2048709;28;20421;-81
2022/03/20 02:03:38;;;;;;;;;;;;;;;15.95;58.86;100169.72;2049930;28;19930;-77
2022/03/20 02:04:40;;;;;;;;;;;;;;;15.95;58.85;100164.38;2048620;28;19937;-80
2022/03/20 02:05:42;;;;;;;;;;;;;;;15.94;58.85;100166.19;2049654;28;19937;-77
2022/03/20 02:06:43;;;;;;;;;;;;;;;15.95;58.78;100161.69;2040327;28;19930;-79
2022/03/20 02:07:45;;;;;;;;;;;;;;;15.97;58.81;100162.38;2040392;28;19937;-80
2022/03/20 02:08:48;;;;;;;;;;;;;;;15.95;58.77;100165.19;2041295;28;19937;-81
2022/03/20 02:09:49;;;;;;;;;;;;;;;15.95;58.67;100153.66;2038767;28;19952;-79
2022/03/20 02:10:50;;;;;;;;;;;;;;;15.96;58.76;100158.00;2038235;28;19931;-80
2022/03/20 02:11:52;;;;;;;;;;;;;;;15.96;58.68;100161.53;2040163;28;19935;-80
2022/03/20 02:12:54;;;;;;;;;;;;;;;15.97;58.67;100165.06;2037066;28;19931;-82
2022/03/20 02:13:55;;;;;;;;;;;;;;;15.97;58.73;100159.72;2039669;28;19930;-80
2022/03/20 02:14:58;;;;;;;;;;;;;;;15.97;58.60;100152.53;2038395;28;19986;-82
2022/03/20 02:15:59;;;;;;;;;;;;;;;15.96;58.77;100156.16;2038990;28;19930;-81
2022/03/20 02:17:01;;;;;;;;;;;;;;;15.97;58.75;100154.34;2038210;28;20308;-84
2022/03/20 02:18:03;;;;;;;;;;;;;;;15.98;58.74;100153.34;2030964;28;19942;-79
2022/03/20 02:19:07;;;;;;;;;;;;;;;15.97;58.72;100159.72;2034586;28;20044;-81
2022/03/20 02:20:10;;;;;;;;;;;;;;;15.98;58.81;100158.72;2038985;28;19931;-83
2022/03/20 02:21:12;;;;;;;;;;;;;;;15.97;58.72;100160.53;2041512;28;19945;-81
2022/03/20 02:22:13;;;;;;;;;;;;;;;15.97;58.73;100151.69;2047060;28;20640;-78
2022/03/20 02:23:14;;;;;;;;;;;;;;;15.97;58.74;100157.88;2048584;28;19980;-83
2022/03/20 02:24:28;;;;;;;;;;;;;;;15.98;58.65;100153.34;2044308;28;20652;-80
2022/03/20 02:25:30;;;;;;;;;;;;;;;15.98;58.62;100156.03;2045218;28;20441;-76
2022/03/20 02:26:31;;;;;;;;;;;;;;;15.97;58.67;100157.03;2045747;28;19930;-78
2022/03/20 02:27:34;;;;;;;;;;;;;;;15.98;58.66;100153.34;2049064;28;20182;-81
2022/03/20 02:28:34;;;;;;;;;;;;;;;15.98;58.62;100153.34;2048551;28;20150;-82
2022/03/20 02:29:37;;;;;;;;;;;;;;;15.97;58.69;100155.19;2046319;28;20009;-78
2022/03/20 02:30:39;;;;;;;;;;;;;;;15.99;58.71;100157.72;2046881;28;19930;-81
2022/03/20 02:31:40;;;;;;;;;;;;;;;15.97;58.60;100152.53;2047052;28;19980;-81
2022/03/20 02:32:46;;;;;;;;;;;;;;;15.98;58.71;100148.84;2045550;28;19938;-81
2022/03/20 02:33:49;;;;;;;;;;;;;;;15.98;58.58;100148.00;2047839;28;19930;-81
2022/03/20 02:34:51;;;;;;;;;;;;;;;15.98;58.53;100153.34;2046862;28;20389;-80
2022/03/20 02:35:55;;;;;;;;;;;;;;;15.97;58.54;100154.34;2047404;28;19984;-80
2022/03/20 02:37:00;;;;;;;;;;;;;;;15.97;58.57;100154.34;2046279;28;20682;-79
2022/03/20 02:38:02;;;;;;;;;;;;;;;15.97;58.62;100147.16;2048541;28;20245;-83
2022/03/20 02:39:03;;;;;;;;;;;;;;;15.97;58.51;100146.34;2044694;28;20316;-79
2022/03/20 02:40:05;;;;;;;;;;;;;;;15.97;58.55;100149.00;2046866;28;20025;-81
2022/03/20 02:41:14;;;;;;;;;;;;;;;15.97;58.57;100149.00;2047180;28;21128;-80
2022/03/20 02:42:17;;;;;;;;;;;;;;;15.96;58.55;100152.66;2048512;28;19933;-80
2022/03/20 02:43:18;;;;;;;;;;;;;;;15.96;58.64;100156.16;2046014;28;19961;-82
2022/03/20 02:44:19;;;;;;;;;;;;;;;15.96;58.41;100153.50;2047951;28;20033;-81
2022/03/20 02:45:28;;;;;;;;;;;;;;;15.96;58.64;100152.66;2049553;28;19930;-81
2022/03/20 02:46:31;;;;;;;;;;;;;;;15.95;58.57;100151.81;2045910;28;20337;-82
2022/03/20 02:47:33;;;;;;;;;;;;;;;15.96;58.56;100155.34;2049276;28;19968;-81
2022/03/20 02:48:37;;;;;;;;;;;;;;;15.96;58.59;100149.97;2046350;28;19937;-80
2022/03/20 02:49:39;;;;;;;;;;;;;;;15.95;58.58;100154.50;2044757;28;19990;-77
2022/03/20 02:50:41;;;;;;;;;;;;;;;15.96;58.48;100155.34;2046854;28;19969;-80
2022/03/20 02:51:41;;;;;;;;;;;;;;;15.97;58.54;100157.03;2047154;28;20456;-81
2022/03/20 02:52:46;;;;;;;;;;;;;;;15.95;58.56;100149.16;2047130;28;20911;-78
2022/03/20 02:53:47;;;;;;;;;;;;;;;15.95;58.55;100159.00;2046928;28;19934;-81
2022/03/20 02:54:48;;;;;;;;;;;;;;;15.95;58.46;100146.47;2046411;28;19981;-81
2022/03/20 02:55:50;;;;;;;;;;;;;;;15.95;58.47;100153.66;2047826;28;19934;-80
2022/03/20 02:56:51;;;;;;;;;;;;;;;15.95;58.35;100150.97;2046570;28;20298;-79
2022/03/20 02:57:55;;;;;;;;;;;;;;;15.96;58.44;100160.69;2048070;28;19936;-78
2022/03/20 02:58:56;;;;;;;;;;;;;;;15.94;58.53;100158.16;2045805;28;21125;-80
2022/03/20 03:00:00;;;;;;;;;;;;;;;15.94;58.44;100160.84;2047733;28;19934;-82
2022/03/20 03:01:02;;;;;;;;;;;;;;;15.94;58.51;100157.34;2046066;28;20021;-82
2022/03/20 03:02:02;;;;;;;;;;;;;;;15.94;58.51;100154.66;2048135;28;19938;-79
2022/03/20 03:03:05;;;;;;;;;;;;;;;15.94;58.46;100168.03;2046494;28;19938;-80
2022/03/20 03:04:11;;;;;;;;;;;;;;;15.92;58.68;100165.50;2047269;28;20601;-83
2022/03/20 03:05:14;;;;;;;;;;;;;;;15.92;58.55;100154.78;2047897;28;19937;-80
2022/03/20 03:06:15;;;;;;;;;;;;;;;15.93;58.40;100163.66;2047588;28;19934;-81
2022/03/20 03:07:17;;;;;;;;;;;;;;;15.92;58.51;100160.16;2048602;28;19930;-82
2022/03/20 03:10:57;;;;;;;;;;;;;;;15.91;58.50;100160.28;2049622;28;20172;-79
2022/03/20 03:11:59;;;;;;;;;;;;;;;15.92;58.46;100165.50;2047565;28;20384;-81
2022/03/20 03:13:03;;;;;;;;;;;;;;;15.91;58.37;100169.19;2048086;28;20328;-80
2022/03/20 03:15:18;;;;;;;;;;;;;;;15.91;58.56;100171.84;2048203;28;20316;-81
2022/03/20 03:15:25;;;;;;;;;;;;;;;15.90;58.42;100169.31;2050172;28;20320;-80
2022/03/20 03:16:26;;;;;;;;;;;;;;;15.90;58.55;100170.16;2047966;28;19930;-82
2022/03/20 03:17:30;;;;;;;;;;;;;;;15.90;58.38;100177.34;2049088;28;19930;-84
2022/03/20 03:18:33;;;;;;;;;;;;;;;15.88;58.46;100168.59;2047092;28;20032;-80
2022/03/20 03:19:33;;;;;;;;;;;;;;;15.89;58.48;100175.66;2050993;28;19930;-80
2022/03/20 03:20:38;;;;;;;;;;;;;;;15.89;58.48;100175.66;2047487;28;19930;-81
2022/03/20 03:21:39;;;;;;;;;;;;;;;15.87;58.54;100167.78;2049981;28;19961;-80
2022/03/20 03:22:40;;;;;;;;;;;;;;;15.87;58.45;100167.78;2048296;28;20118;-78
2022/03/20 03:23:44;;;;;;;;;;;;;;;15.86;58.56;100172.28;2050913;28;19941;-80
2022/03/20 03:24:46;;;;;;;;;;;;;;;15.86;58.41;100172.28;2036716;28;19937;-80
2022/03/20 03:25:48;;;;;;;;;;;;;;;15.86;58.43;100174.13;2048350;28;19930;-79
2022/03/20 03:26:49;;;;;;;;;;;;;;;15.85;58.50;100180.44;2047730;28;19930;-80
2022/03/20 03:27:51;;;;;;;;;;;;;;;15.85;58.46;100169.75;2048822;28;19930;-83
2022/03/20 03:28:51;;;;;;;;;;;;;;;15.84;58.53;100174.25;2049004;28;20469;-78
2022/03/20 03:29:53;;;;;;;;;;;;;;;15.84;58.49;100173.44;2046783;28;19961;-80
2022/03/20 03:30:53;;;;;;;;;;;;;;;15.84;58.43;100168.91;2048884;28;20028;-78
2022/03/20 03:31:57;;;;;;;;;;;;;;;15.83;58.44;100174.44;2050747;28;19938;-80
2022/03/20 03:32:58;;;;;;;;;;;;;;;15.83;58.53;100172.59;2050276;28;19930;-81
2022/03/20 03:36:37;;;;;;;;;;;;;;;15.80;58.52;100175.56;2049719;28;19930;-82
2022/03/20 03:37:38;;;;;;;;;;;;;;;15.80;58.45;100172.88;2050340;28;19930;-82
2022/03/20 03:38:40;;;;;;;;;;;;;;;15.81;58.47;100176.41;2050903;28;19952;-83
2022/03/20 03:39:43;;;;;;;;;;;;;;;15.80;58.44;100178.25;2049832;28;19937;-81
2022/03/20 03:40:46;;;;;;;;;;;;;;;15.79;58.50;100175.69;2040124;28;19930;-80
2022/03/20 03:41:46;;;;;;;;;;;;;;;15.79;58.48;100178.38;2049494;28;19937;-82
2022/03/20 03:42:48;;;;;;;;;;;;;;;15.79;58.52;100179.22;2051208;28;20188;-82
2022/03/20 03:43:49;;;;;;;;;;;;;;;15.77;58.43;100175.84;2041926;28;19930;-82
2022/03/20 03:44:51;;;;;;;;;;;;;;;15.78;58.57;100174.84;2056890;28;19934;-80
2022/03/20 03:45:53;;;;;;;;;;;;;;;15.78;58.59;100176.69;2055551;28;20446;-80
2022/03/20 03:46:57;;;;;;;;;;;;;;;15.76;58.46;100174.16;2042138;28;19930;-81
2022/03/20 03:47:59;;;;;;;;;;;;;;;15.76;58.42;100184.84;2057197;28;20032;-79
2022/03/20 03:49:00;;;;;;;;;;;;;;;15.75;58.56;100180.50;2053617;28;20328;-80
2022/03/20 03:50:01;;;;;;;;;;;;;;;15.77;58.58;100178.53;2049180;28;20029;-81
2022/03/20 03:51:04;;;;;;;;;;;;;;;15.76;58.58;100182.19;2049672;28;19934;-79
2022/03/20 03:52:08;;;;;;;;;;;;;;;15.74;58.47;100176.16;2042166;28;20017;-82
2022/03/20 03:53:10;;;;;;;;;;;;;;;15.74;58.48;100183.31;2050783;28;20926;-78
2022/03/20 03:54:11;;;;;;;;;;;;;;;15.74;58.57;100183.31;2049091;28;19937;-81
2022/03/20 03:55:14;;;;;;;;;;;;;;;15.72;58.51;100179.97;2050938;28;20472;-80
2022/03/20 03:56:15;;;;;;;;;;;;;;;15.72;58.48;100179.97;2050251;28;19934;-79
2022/03/20 03:57:19;;;;;;;;;;;;;;;15.72;58.52;100186.16;2048758;28;19930;-80
2022/03/20 03:58:21;;;;;;;;;;;;;;;15.70;58.46;100182.78;2050330;28;20065;-81
2022/03/20 03:59:24;;;;;;;;;;;;;;;15.72;58.49;100185.31;2050235;28;19933;-82
2022/03/20 04:00:26;;;;;;;;;;;;;;;15.71;58.60;100179.13;2049787;28;19980;-81
2022/03/20 04:01:26;;;;;;;;;;;;;;;15.71;58.58;100178.25;2050193;28;20436;-80
2022/03/20 04:02:29;;;;;;;;;;;;;;;15.71;58.51;100178.25;2050476;28;20100;-81
2022/03/20 04:03:30;;;;;;;;;;;;;;;15.69;58.59;100181.09;2049898;28;19930;-79
2022/03/20 04:04:31;;;;;;;;;;;;;;;15.69;58.61;100183.78;2049816;28;20028;-78
2022/03/20 04:05:34;;;;;;;;;;;;;;;15.68;58.63;100184.75;2049756;28;20286;-79
2022/03/20 04:06:36;;;;;;;;;;;;;;;15.68;58.55;100175.84;2046551;28;19934;-81
2022/03/20 04:07:37;;;;;;;;;;;;;;;15.67;58.61;100183.03;2050226;28;20032;-82
2022/03/20 04:08:38;;;;;;;;;;;;;;;15.67;58.62;100182.22;2049899;28;19934;-78
2022/03/20 04:09:39;;;;;;;;;;;;;;;15.66;58.59;100181.38;2050544;28;20058;-83
2022/03/20 04:10:42;;;;;;;;;;;;;;;15.65;58.57;100175.16;2049378;28;19937;-79
2022/03/20 04:11:43;;;;;;;;;;;;;;;15.65;58.57;100185.84;2050143;28;20430;-83
2022/03/20 04:12:45;;;;;;;;;;;;;;;15.64;58.56;100183.34;2049678;28;19930;-80
2022/03/20 04:13:46;;;;;;;;;;;;;;;15.63;58.71;100179.81;2050187;28;19930;-79
2022/03/20 04:14:48;;;;;;;;;;;;;;;15.63;58.65;100187.00;2048589;28;20451;-81
2022/03/20 04:15:49;;;;;;;;;;;;;;;15.63;58.59;100187.00;2049749;28;20997;-81
2022/03/20 04:16:50;;;;;;;;;;;;;;;15.63;58.55;100187.00;2049552;28;19934;-81
2022/03/20 04:17:51;;;;;;;;;;;;;;;15.62;58.74;100187.97;2049943;28;20381;-82
2022/03/20 04:18:52;;;;;;;;;;;;;;;15.61;58.73;100189.81;2048863;28;20335;-80
2022/03/20 04:19:56;;;;;;;;;;;;;;;15.61;58.66;100188.97;2047983;28;20162;-80
2022/03/20 04:20:57;;;;;;;;;;;;;;;15.60;58.68;100181.94;2043621;28;19930;-81
2022/03/20 04:22:01;;;;;;;;;;;;;;;15.60;58.62;100193.50;2048756;28;19930;-83
2022/03/20 04:24:22;;;;;;;;;;;;;;;15.59;58.65;100188.28;2037746;28;20017;-83
2022/03/20 04:25:23;;;;;;;;;;;;;;;15.58;58.76;100192.78;2046307;28;19938;-81
2022/03/20 04:26:25;;;;;;;;;;;;;;;15.58;58.73;100187.44;2048921;28;20952;-82
2022/03/20 04:27:28;;;;;;;;;;;;;;;15.57;58.63;100193.78;2040926;28;20343;-78
2022/03/20 04:28:30;;;;;;;;;;;;;;;15.56;58.83;100186.75;2049490;28;19930;-80
2022/03/20 04:29:32;;;;;;;;;;;;;;;15.57;58.73;100187.56;2046931;28;19930;-80
2022/03/20 04:30:35;;;;;;;;;;;;;;;15.55;58.68;100186.91;2049513;28;20154;-81
2022/03/20 04:31:36;;;;;;;;;;;;;;;15.55;58.62;100193.09;2046997;28;21410;-83
2022/03/20 04:32:38;;;;;;;;;;;;;;;15.53;58.84;100180.84;2049682;28;20664;-80
2022/03/20 04:33:39;;;;;;;;;;;;;;;15.54;58.75;100185.19;2041710;28;19989;-81
2022/03/20 04:34:40;;;;;;;;;;;;;;;15.53;58.83;100189.69;2049219;28;19930;-78
2022/03/20 04:35:41;;;;;;;;;;;;;;;15.53;58.69;100189.69;2049074;28;19934;-80
2022/03/20 04:36:43;;;;;;;;;;;;;;;15.53;58.73;100192.38;2048554;28;20304;-81
2022/03/20 04:37:44;;;;;;;;;;;;;;;15.53;58.78;100186.19;2045355;28;19954;-79
2022/03/20 04:38:46;;;;;;;;;;;;;;;15.50;58.69;100190.00;2050287;28;20173;-81
2022/03/20 04:39:46;;;;;;;;;;;;;;;15.50;58.79;100189.16;2049601;28;19941;-80
2022/03/20 04:40:48;;;;;;;;;;;;;;;15.50;58.87;100186.50;2047331;28;19937;-81
2022/03/20 04:41:52;;;;;;;;;;;;;;;15.50;58.70;100187.31;2048700;28;20330;-79
2022/03/20 04:42:53;;;;;;;;;;;;;;;15.48;58.82;100183.94;2049961;28;19930;-81
2022/03/20 04:43:54;;;;;;;;;;;;;;;15.48;58.85;100189.28;2050208;28;20377;-81
2022/03/20 04:44:58;;;;;;;;;;;;;;;15.48;58.79;100188.47;2050408;28;19937;-82
2022/03/20 04:46:00;;;;;;;;;;;;;;;15.47;58.73;100190.28;2049103;28;19930;-80
2022/03/20 04:47:01;;;;;;;;;;;;;;;15.47;58.83;100190.28;2050156;28;19957;-80
2022/03/20 04:58:43;;;;;;;;;;;;;;;15.50;58.90;100192.66;2050181;28;19934;-81
2022/03/20 04:59:45;;;;;;;;;;;;;;;15.50;58.87;100192.66;2049940;28;19934;-82
2022/03/20 05:00:46;;;;;;;;;;;;;;;15.50;58.78;100197.19;2049203;28;19984;-82
2022/03/20 05:01:48;;;;;;;;;;;;;;;15.49;58.92;100204.38;2048803;28;19985;-82
2022/03/20 05:02:51;;;;;;;;;;;;;;;15.50;58.96;100208.72;2048450;28;20638;-81
2022/03/20 05:03:53;;;;;;;;;;;;;;;15.50;58.86;100199.84;2050002;28;19930;-81
2022/03/20 05:04:53;;;;;;;;;;;;;;;15.51;58.85;100209.56;2048143;28;20062;-82
2022/03/20 05:05:56;;;;;;;;;;;;;;;15.52;58.83;100212.09;2044037;28;20015;-82
2022/03/20 05:06:57;;;;;;;;;;;;;;;15.52;58.71;100200.56;2049400;28;19930;-81
2022/03/20 05:07:58;;;;;;;;;;;;;;;15.52;58.95;100211.25;2049866;28;19930;-78
2022/03/20 05:14:13;;;;;;;;;;;;;;;15.63;59.03;100219.09;2038925;28;19945;-79
2022/03/20 05:15:14;;;;;;;;;;;;;;;15.65;58.91;100217.09;2049450;28;19930;-78
2022/03/20 05:16:16;;;;;;;;;;;;;;;15.69;59.06;100215.88;2049683;28;19934;-80
2022/03/20 05:17:17;;;;;;;;;;;;;;;15.71;58.87;100218.38;2048792;28;19934;-82
2022/03/20 05:18:19;;;;;;;;;;;;;;;15.75;59.05;100222.47;2049295;28;20325;-81
2022/03/20 05:19:20;;;;;;;;;;;;;;;15.77;58.95;100221.34;2048180;28;19941;-81
2022/03/20 05:20:22;;;;;;;;;;;;;;;15.81;58.90;100221.88;2049194;28;20017;-80
2022/03/20 05:21:24;;;;;;;;;;;;;;;15.83;58.95;100226.09;2049345;28;19992;-79
2022/03/20 05:22:24;;;;;;;;;;;;;;;15.88;58.88;100227.47;2048205;28;19980;-82
2022/03/20 05:23:28;;;;;;;;;;;;;;;15.90;58.89;100225.50;2049455;28;19988;-81
2022/03/20 05:24:28;;;;;;;;;;;;;;;15.94;58.76;100225.06;2041227;28;19930;-78
2022/03/20 05:25:30;;;;;;;;;;;;;;;15.97;58.67;100232.81;2046636;28;19973;-80
2022/03/20 05:26:31;;;;;;;;;;;;;;;16.00;58.80;100231.66;2048548;28;20306;-80
2022/03/20 05:27:32;;;;;;;;;;;;;;;16.02;58.70;100232.38;2048217;28;19980;-80
2022/03/20 05:28:35;;;;;;;;;;;;;;;16.04;58.77;100230.38;2048968;28;19937;-80
2022/03/20 05:29:38;;;;;;;;;;;;;;;16.07;58.82;100238.09;2048284;28;20603;-82
2022/03/20 05:30:40;;;;;;;;;;;;;;;16.10;58.68;100229.75;2048724;28;19930;-78
2022/03/20 05:31:41;;;;;;;;;;;;;;;16.14;58.56;100235.69;2048472;28;20240;-78
2022/03/20 05:32:42;;;;;;;;;;;;;;;16.15;58.52;100235.53;2046374;28;20432;-82
2022/03/20 05:33:43;;;;;;;;;;;;;;;16.16;58.63;100234.56;2048509;28;19930;-81
2022/03/20 05:34:45;;;;;;;;;;;;;;;16.19;58.60;100236.94;2049512;28;19930;-80
2022/03/20 05:35:46;;;;;;;;;;;;;;;16.21;58.55;100234.09;2049612;28;19962;-79
2022/03/20 05:36:47;;;;;;;;;;;;;;;16.23;58.50;100240.97;2048745;28;19941;-81
2022/03/20 05:37:48;;;;;;;;;;;;;;;16.25;58.42;100239.00;2048683;28;19934;-78
2022/03/20 05:38:50;;;;;;;;;;;;;;;16.28;58.26;100245.91;2049520;28;19997;-83
2022/03/20 05:39:50;;;;;;;;;;;;;;;16.30;58.34;100244.75;2048777;28;19933;-81
2022/03/20 05:41:43;;;;;;;;;;;;;;;16.33;58.43;100242.78;2047679;28;20384;-81